Terminal Aerodrome Forecast
Issued by NWS Sioux Falls, SD

Home | Current Version | Previous Version | Graphics & Text | Print | Product List | Glossary On
Versions: 1 2 3 4 5 6 7 8 9 10 11 12 13 14 15 16 17 18 19 20 21 22 23 24 25 26 27 28 29 30
283
FTUS43 KFSD 151721
TAFSUX
TAF
KSUX 151721Z 1518/1618 13004KT P6SM SCT250
     FM152200 14005KT P6SM BKN090
     FM160600 13004KT P6SM OVC025
     FM160700 12004KT 4SM -FZRA OVC020
     FM160900 11004KT 2SM -FZRAPL OVC010
     FM161100 VRB04KT 1 1/2SM -FZRA OVC003=

USA.gov is the U.S. government's official web portal to all federal, state and local government web resources and services.